Chalk, Texas
Current Conditions -  °F | °C
As of 3:53 AM on Saturday 25 Oct 2014 (Local Time) from KCDS Reporting Station
Clear Clear  
Wind Chill: 63°   Ceiling: Unl
Heat Index: 63°   Visibility: 10mi
Dew Point: 54°   Wind: 6mph
Humidity: 72%   Direction: 250°WSW
Pressure: 30.1"   Gusts: NA
Location:  33.87°N, 100.22°W
Report Text: KCDS 250853Z AUTO 25005KT 10SM CLR 17/12 A3010 RMK AO2 SLP166 T01720122 50000
Loading
Personal Weather Stations






























Interactive Weather Map New forecast layout! Learn more

10-Day Weather Forecast

Advertisements
Track Severe Weather on mobile